createdAt,value
2022-08-05T00:01:29.650Z,26.00
2022-08-05T00:06:38.386Z,26.00
2022-08-05T00:11:49.190Z,25.80
2022-08-05T00:16:57.679Z,25.80
2022-08-05T00:21:59.462Z,25.70
2022-08-05T00:27:04.503Z,25.60
2022-08-05T00:32:15.003Z,25.40
2022-08-05T00:37:17.342Z,25.20
2022-08-05T00:42:37.193Z,25.10
2022-08-05T00:47:57.246Z,25.00
2022-08-05T00:53:02.483Z,25.00
2022-08-05T00:58:04.706Z,24.90
2022-08-05T01:03:07.844Z,24.90
2022-08-05T01:08:42.039Z,24.80
2022-08-05T01:13:57.445Z,24.70
2022-08-05T01:19:20.052Z,24.60
2022-08-05T01:24:39.923Z,24.50
2022-08-05T01:29:48.905Z,24.40
2022-08-05T01:34:59.140Z,24.30
2022-08-05T01:40:02.619Z,24.10
2022-08-05T01:45:08.248Z,24.00
2022-08-05T01:50:15.735Z,23.90
2022-08-05T01:55:22.459Z,23.70
2022-08-05T02:00:30.240Z,23.60
2022-08-05T02:05:35.985Z,23.60
2022-08-05T02:10:51.206Z,23.50
2022-08-05T02:16:00.355Z,23.40
2022-08-05T02:21:15.179Z,23.40
2022-08-05T02:26:23.394Z,23.30
2022-08-05T02:31:35.019Z,23.10
2022-08-05T02:36:42.364Z,23.10
2022-08-05T02:42:00.651Z,23.00
2022-08-05T02:47:06.339Z,23.00
2022-08-05T02:52:29.861Z,22.90
2022-08-05T02:58:10.790Z,22.80
2022-08-05T03:02:57.299Z,22.80
2022-08-05T03:08:07.097Z,22.80
2022-08-05T03:13:16.917Z,22.80
2022-08-05T03:18:18.837Z,22.70
2022-08-05T03:23:33.328Z,22.60
2022-08-05T03:28:37.162Z,22.50
2022-08-05T03:33:50.876Z,22.50
2022-08-05T03:38:53.416Z,22.50
2022-08-05T03:44:09.535Z,22.50
2022-08-05T03:49:13.443Z,22.50
2022-08-05T03:55:53.957Z,22.40
2022-08-05T03:59:56.246Z,22.30
2022-08-05T04:05:00.008Z,22.30
2022-08-05T04:10:03.078Z,22.30
2022-08-05T04:15:06.394Z,22.20
2022-08-05T04:20:19.928Z,22.20
2022-08-05T04:25:24.186Z,22.20
2022-08-05T04:30:43.587Z,22.20
2022-08-05T04:36:15.939Z,22.20
2022-08-05T04:41:09.460Z,22.20
2022-08-05T04:46:11.958Z,22.40
2022-08-05T04:51:14.882Z,22.60
2022-08-05T04:56:35.070Z,22.70
2022-08-05T05:02:35.445Z,22.60
2022-08-05T05:06:59.989Z,22.50
2022-08-05T05:12:02.055Z,22.60
2022-08-05T05:17:07.579Z,22.50
2022-08-05T05:22:24.239Z,22.50
2022-08-05T05:27:41.263Z,22.30
2022-08-05T05:32:47.842Z,22.40
2022-08-05T05:38:01.852Z,22.40
2022-08-05T05:43:04.082Z,22.30
2022-08-05T05:48:10.571Z,22.50
2022-08-05T05:53:22.352Z,22.50
2022-08-05T05:58:31.826Z,22.60
2022-08-05T06:03:54.008Z,22.80
2022-08-05T06:08:55.976Z,23.00
2022-08-05T06:13:57.935Z,23.50
2022-08-05T06:19:05.826Z,23.50
2022-08-05T06:24:11.736Z,23.50
2022-08-05T06:29:23.560Z,23.30
2022-08-05T06:34:28.194Z,23.30
2022-08-05T06:39:30.074Z,23.00
2022-08-05T06:44:33.092Z,23.20
2022-08-05T06:50:00.311Z,23.20
2022-08-05T06:54:56.573Z,23.50
2022-08-05T06:59:58.433Z,23.50
2022-08-05T07:05:00.212Z,23.50
2022-08-05T07:10:03.555Z,23.70
2022-08-05T07:15:34.781Z,23.90
2022-08-05T07:20:46.006Z,23.90
2022-08-05T07:25:56.147Z,24.30
2022-08-05T07:30:58.274Z,24.60
2022-08-05T07:36:19.322Z,24.90
2022-08-05T07:42:14.720Z,24.90
2022-08-05T07:46:48.631Z,25.10
2022-08-05T07:51:53.581Z,25.10
2022-08-05T07:57:14.602Z,24.80
2022-08-05T08:02:26.751Z,24.90
2022-08-05T08:07:39.682Z,25.20
2022-08-05T08:12:54.562Z,25.30
2022-08-05T08:18:01.883Z,25.50
2022-08-05T08:23:04.316Z,25.60
2022-08-05T08:28:06.088Z,25.80
2022-08-05T08:33:19.903Z,25.60
2022-08-05T08:38:32.125Z,25.80
2022-08-05T08:45:21.421Z,25.90
2022-08-05T08:50:04.070Z,25.60
2022-08-05T08:54:27.340Z,25.10
2022-08-05T08:59:33.834Z,25.20
2022-08-05T09:04:57.884Z,25.30
2022-08-05T09:10:00.467Z,26.00
2022-08-05T09:15:06.631Z,26.50
2022-08-05T09:20:09.508Z,26.60
2022-08-05T09:25:14.012Z,26.60
2022-08-05T09:30:26.417Z,26.80
2022-08-05T09:35:28.247Z,27.60
2022-08-05T09:40:34.369Z,28.00
2022-08-05T09:46:07.570Z,28.10
2022-08-05T09:51:14.934Z,27.80
2022-08-05T09:56:28.939Z,28.10
2022-08-05T10:01:35.132Z,28.40
2022-08-05T10:06:37.145Z,28.20
2022-08-05T10:11:40.430Z,29.00
2022-08-05T10:16:52.938Z,29.50
2022-08-05T10:21:55.126Z,29.80
2022-08-05T10:27:00.472Z,29.20
2022-08-05T10:32:52.278Z,29.30
2022-08-05T10:37:37.162Z,28.90
2022-08-05T10:42:47.578Z,28.10
2022-08-05T10:48:30.341Z,28.60
2022-08-05T10:53:54.581Z,28.60
2022-08-05T10:59:12.445Z,28.90
2022-08-05T11:04:17.479Z,29.20
2022-08-05T11:09:45.451Z,29.50
2022-08-05T11:15:11.605Z,29.20
2022-08-05T11:20:45.241Z,28.40
2022-08-05T11:26:09.083Z,28.70
2022-08-05T11:31:11.593Z,28.60
2022-08-05T11:36:43.010Z,28.60
2022-08-05T11:42:01.106Z,28.40
2022-08-05T11:47:12.168Z,28.60
2022-08-05T11:52:29.243Z,28.60
2022-08-05T11:58:08.058Z,28.30
2022-08-05T12:02:53.463Z,28.40
2022-08-05T12:08:03.381Z,28.40
2022-08-05T12:13:15.579Z,28.70
2022-08-05T12:18:38.840Z,29.10
2022-08-05T12:23:51.104Z,29.20
2022-08-05T12:28:52.909Z,29.20
2022-08-05T12:33:58.289Z,29.30
2022-08-05T12:39:00.599Z,29.30
2022-08-05T12:44:11.660Z,29.30
2022-08-05T12:49:16.108Z,29.50
2022-08-05T12:54:26.653Z,29.70
2022-08-05T13:00:08.341Z,30.00
2022-08-05T13:04:54.883Z,30.50
2022-08-05T13:10:01.103Z,31.30
2022-08-05T13:15:06.250Z,31.50
2022-08-05T13:20:23.209Z,30.80
2022-08-05T13:25:51.998Z,31.20
2022-08-05T13:30:48.455Z,31.10
2022-08-05T13:35:53.072Z,30.90
2022-08-05T13:40:55.245Z,30.30
2022-08-05T13:45:56.994Z,30.30
2022-08-05T13:51:09.614Z,30.50
2022-08-05T13:56:19.004Z,31.50
2022-08-05T14:01:27.375Z,31.50
2022-08-05T14:06:38.301Z,31.30
2022-08-05T14:12:00.430Z,31.20
2022-08-05T14:17:04.587Z,31.20
2022-08-05T14:22:18.818Z,32.10
2022-08-05T14:27:20.973Z,31.40
2022-08-05T14:32:27.857Z,31.30
2022-08-05T14:37:45.298Z,32.00
2022-08-05T14:42:50.458Z,31.80
2022-08-05T14:48:03.961Z,32.10
2022-08-05T14:53:07.768Z,32.10
2022-08-05T14:58:11.407Z,31.70
2022-08-05T15:03:14.396Z,31.90
2022-08-05T15:08:58.513Z,32.80
2022-08-05T15:13:45.863Z,32.60
2022-08-05T15:18:48.071Z,33.10
2022-08-05T15:23:49.841Z,33.20
2022-08-05T15:28:53.168Z,32.80
2022-08-05T15:34:19.134Z,30.40
2022-08-05T15:41:01.186Z,28.90
2022-08-05T15:44:43.965Z,27.50
2022-08-05T15:49:58.570Z,27.40
2022-08-05T15:55:01.215Z,27.00
2022-08-05T16:00:08.191Z,25.70
2022-08-05T16:05:11.255Z,25.20
2022-08-05T16:10:13.078Z,24.80
2022-08-05T16:15:18.675Z,24.40
2022-08-05T16:20:20.526Z,23.80
2022-08-05T16:25:22.240Z,23.60
2022-08-05T16:30:34.471Z,23.10
2022-08-05T16:35:42.502Z,22.60
2022-08-05T16:40:51.831Z,22.20
2022-08-05T16:46:05.897Z,22.20
2022-08-05T16:51:11.274Z,21.80
2022-08-05T16:56:13.884Z,21.20
2022-08-05T17:01:15.980Z,21.20
2022-08-05T17:06:17.831Z,21.30
2022-08-05T17:11:19.697Z,21.20
2022-08-05T17:16:32.811Z,21.00
2022-08-05T17:21:36.889Z,20.90
2022-08-05T17:26:39.106Z,20.90
2022-08-05T17:31:58.570Z,21.00
2022-08-05T17:37:00.891Z,21.10
2022-08-05T17:42:19.691Z,20.80
2022-08-05T17:47:24.742Z,20.60
2022-08-05T17:52:27.966Z,20.90
2022-08-05T17:57:30.297Z,20.70
2022-08-05T18:02:34.413Z,20.60
2022-08-05T18:07:41.313Z,20.40
2022-08-05T18:12:43.933Z,20.10
2022-08-05T18:18:00.558Z,20.10
2022-08-05T18:23:09.059Z,19.90
2022-08-05T18:28:11.638Z,20.00
2022-08-05T18:33:14.025Z,20.20
2022-08-05T18:38:19.194Z,20.30
2022-08-05T18:43:27.508Z,20.10
2022-08-05T18:48:33.704Z,20.00
2022-08-05T18:53:42.914Z,20.00
2022-08-05T18:58:47.756Z,20.00
2022-08-05T19:03:55.414Z,20.00
2022-08-05T19:08:58.330Z,20.00
2022-08-05T19:14:15.254Z,19.80
2022-08-05T19:19:25.559Z,19.90
2022-08-05T19:24:34.410Z,19.90
2022-08-05T19:29:37.570Z,19.80
2022-08-05T19:34:40.827Z,20.00
2022-08-05T19:39:45.650Z,19.90
2022-08-05T19:44:53.839Z,20.00
2022-08-05T19:50:00.817Z,19.70
2022-08-05T19:55:07.139Z,19.80
2022-08-05T20:00:10.655Z,19.60
2022-08-05T20:05:24.118Z,19.60
2022-08-05T20:10:26.150Z,19.60
2022-08-05T20:15:52.407Z,19.60
2022-08-05T20:20:51.006Z,19.40
2022-08-05T20:25:54.364Z,19.40
2022-08-05T20:30:56.124Z,19.50
2022-08-05T20:35:58.353Z,19.50
2022-08-05T20:41:00.260Z,19.60
2022-08-05T20:46:06.948Z,19.60
2022-08-05T20:51:08.816Z,19.60
2022-08-05T20:56:10.701Z,19.60
2022-08-05T21:01:12.537Z,19.60
2022-08-05T21:06:27.541Z,19.70
2022-08-05T21:12:08.989Z,19.70
2022-08-05T21:16:52.221Z,19.70
2022-08-05T21:21:54.231Z,19.60
2022-08-05T21:26:58.789Z,19.40
2022-08-05T21:32:04.246Z,19.30
2022-08-05T21:37:08.228Z,19.40
2022-08-05T21:42:30.995Z,19.40
2022-08-05T21:47:55.797Z,19.30
2022-08-05T21:52:58.951Z,19.20
2022-08-05T21:58:06.591Z,19.20
2022-08-05T22:03:10.182Z,19.30
2022-08-05T22:08:22.100Z,19.10
2022-08-05T22:14:06.627Z,18.90
2022-08-05T22:18:49.174Z,18.80
2022-08-05T22:24:13.263Z,18.80
2022-08-05T22:29:33.097Z,18.90
2022-08-05T22:34:35.106Z,18.90
2022-08-05T22:39:38.140Z,18.90
2022-08-05T22:44:42.532Z,19.00
2022-08-05T22:50:22.811Z,19.00
2022-08-05T22:55:18.224Z,19.00
2022-08-05T23:00:22.918Z,19.10
2022-08-05T23:05:24.661Z,19.00
2022-08-05T23:10:26.392Z,19.00
2022-08-05T23:15:35.409Z,19.00
2022-08-05T23:20:38.342Z,18.80
2022-08-05T23:25:54.675Z,18.80
2022-08-05T23:31:14.836Z,18.60
2022-08-05T23:36:18.631Z,18.50
2022-08-05T23:41:21.004Z,18.40
2022-08-05T23:46:23.627Z,18.30
2022-08-05T23:51:25.357Z,18.20
2022-08-05T23:56:27.907Z,18.00
